Terminal Aerodrome Forecast
Issued by NWS Wilmington, NC

Home | Current Version | Previous Version | Text Only | Print | Product List | Glossary On
Versions: 1 2 3 4 5 6 7 8 9 10 11 12
000
FTUS42 KILM 281120
TAFFLO
TAF
KFLO 281120Z 2812/2912 04003KT P6SM SCT008 SCT050 BKN250
     FM281300 05008KT P6SM SCT025 SCT080 BKN250
     FM281800 07006KT 6SM -SHRA OVC025
     FM290000 04004KT 4SM SHRA OVC025=

USA.gov is the U.S. government's official web portal to all federal, state and local government web resources and services.